Terminal Aerodrome Forecast
Issued by NWS

Home | Current Version | Previous Version | Text Only | Print | Product List | Glossary On
Versions: 1 2 3 4 5 6 7 8 9 10 11 12
000
FTUS46 KSEW 011100
TAFBLI
TAF
KBLI 011124Z 0112/0212 VRB03KT P6SM SCT200
     FM011800 13006KT P6SM SCT200
     FM020000 20005KT P6SM BKN150 OVC200
     FM020400 36004KT P6SM BKN070 OVC120
     FM020900 01006KT P6SM BKN030 OVC040=

USA.gov is the U.S. government's official web portal to all federal, state and local government web resources and services.